createdAt,value
2022-11-07T00:00:50.659Z,4.42
2022-11-07T00:01:52.758Z,4.43
2022-11-07T00:02:54.865Z,4.44
2022-11-07T00:03:56.697Z,4.44
2022-11-07T00:04:58.387Z,4.45
2022-11-07T00:06:00.117Z,4.46
2022-11-07T00:07:02.660Z,4.47
2022-11-07T00:08:04.674Z,4.46
2022-11-07T00:09:06.482Z,4.46
2022-11-07T00:10:08.534Z,4.45
2022-11-07T00:11:10.259Z,4.42
2022-11-07T00:12:12.021Z,4.43
2022-11-07T00:13:14.993Z,4.42
2022-11-07T00:14:18.324Z,4.43
2022-11-07T00:15:20.118Z,4.42
2022-11-07T00:16:21.889Z,4.43
2022-11-07T00:17:23.636Z,4.42
2022-11-07T00:18:25.674Z,4.43
2022-11-07T00:19:27.431Z,4.44
2022-11-07T00:20:29.209Z,4.45
2022-11-07T00:21:30.940Z,4.46
2022-11-07T00:22:32.753Z,4.46
2022-11-07T00:23:35.340Z,4.46
2022-11-07T00:24:37.069Z,4.46
2022-11-07T00:25:38.853Z,4.48
2022-11-07T00:26:40.796Z,4.50
2022-11-07T00:27:42.691Z,4.51
2022-11-07T00:28:44.778Z,4.53
2022-11-07T00:29:46.531Z,4.56
2022-11-07T00:30:48.338Z,4.58
2022-11-07T00:31:50.829Z,4.60
2022-11-07T00:32:55.218Z,4.62
2022-11-07T00:34:00.828Z,4.64
2022-11-07T00:35:02.556Z,4.65
2022-11-07T00:36:05.137Z,4.67
2022-11-07T00:37:06.897Z,4.69
2022-11-07T00:38:08.750Z,4.70
2022-11-07T00:39:11.832Z,4.72
2022-11-07T00:40:13.605Z,4.74
2022-11-07T00:41:16.360Z,4.75
2022-11-07T00:42:18.067Z,4.77
2022-11-07T00:43:19.768Z,4.77
2022-11-07T00:44:22.818Z,4.80
2022-11-07T00:45:25.016Z,4.80
2022-11-07T00:46:26.887Z,4.77
2022-11-07T00:47:28.846Z,4.78
2022-11-07T00:48:32.080Z,4.79
2022-11-07T00:49:33.992Z,4.80
2022-11-07T00:50:35.731Z,4.80
2022-11-07T00:51:37.624Z,4.80
2022-11-07T00:52:39.403Z,4.82
2022-11-07T00:53:42.239Z,4.82
2022-11-07T00:54:44.118Z,4.83
2022-11-07T00:55:46.222Z,4.85
2022-11-07T00:56:47.965Z,4.86
2022-11-07T00:57:49.686Z,4.85
2022-11-07T00:58:56.139Z,4.90
2022-11-07T00:59:58.037Z,4.92
2022-11-07T01:01:06.205Z,4.93
2022-11-07T01:02:08.083Z,4.93
2022-11-07T01:03:28.227Z,4.95
2022-11-07T01:04:48.614Z,4.97
2022-11-07T01:05:58.407Z,4.98
2022-11-07T01:07:02.397Z,4.98
2022-11-07T01:08:04.731Z,4.99
2022-11-07T01:09:09.669Z,5.00
2022-11-07T01:10:11.573Z,5.00
2022-11-07T01:11:14.265Z,5.00
2022-11-07T01:12:16.226Z,5.01
2022-11-07T01:13:18.415Z,5.01
2022-11-07T01:14:22.205Z,5.02
2022-11-07T01:15:24.192Z,5.03
2022-11-07T01:16:27.443Z,5.05
2022-11-07T01:17:29.206Z,5.06
2022-11-07T01:18:30.978Z,5.05
2022-11-07T01:19:32.731Z,5.07
2022-11-07T01:20:34.638Z,5.06
2022-11-07T01:21:41.660Z,5.09
2022-11-07T01:22:43.391Z,5.10
2022-11-07T01:23:45.383Z,5.12
2022-11-07T01:24:47.573Z,5.15
2022-11-07T01:25:49.546Z,5.17
2022-11-07T01:26:51.887Z,5.19
2022-11-07T01:27:53.692Z,5.19
2022-11-07T01:28:55.512Z,5.21
2022-11-07T01:29:57.290Z,5.20
2022-11-07T01:31:02.304Z,5.20
2022-11-07T01:32:04.315Z,5.20
2022-11-07T01:33:06.090Z,5.20
2022-11-07T01:34:08.079Z,5.19
2022-11-07T01:35:09.912Z,5.21
2022-11-07T01:36:15.245Z,5.22
2022-11-07T01:37:17.084Z,5.23
2022-11-07T01:38:18.844Z,5.24
2022-11-07T01:39:20.627Z,5.24
2022-11-07T01:40:22.427Z,5.23
2022-11-07T01:41:27.788Z,5.22
2022-11-07T01:42:29.538Z,5.22
2022-11-07T01:43:46.328Z,5.23
2022-11-07T01:44:55.128Z,5.23
2022-11-07T01:45:56.841Z,5.24
2022-11-07T01:47:01.147Z,5.25
2022-11-07T01:48:03.773Z,5.24
2022-11-07T01:49:26.168Z,5.24
2022-11-07T01:50:28.309Z,5.26
2022-11-07T01:51:35.324Z,5.28
2022-11-07T01:52:42.003Z,5.30
2022-11-07T01:53:44.216Z,5.32
2022-11-07T01:54:52.133Z,5.34
2022-11-07T01:55:54.293Z,5.33
2022-11-07T01:57:00.638Z,5.34
2022-11-07T01:58:07.978Z,5.34
2022-11-07T01:59:13.997Z,5.35
2022-11-07T02:00:19.855Z,5.36
2022-11-07T02:01:22.661Z,5.37
2022-11-07T02:02:28.233Z,5.37
2022-11-07T02:03:30.238Z,5.38
2022-11-07T02:04:32.073Z,5.39
2022-11-07T02:06:13.393Z,5.40
2022-11-07T02:07:19.925Z,5.41
2022-11-07T02:08:23.996Z,5.41
2022-11-07T02:09:25.816Z,5.41
2022-11-07T02:10:28.716Z,5.41
2022-11-07T02:11:30.760Z,5.42
2022-11-07T02:12:32.788Z,5.41
2022-11-07T02:13:34.678Z,5.42
2022-11-07T02:14:36.523Z,5.44
2022-11-07T02:15:38.368Z,5.45
2022-11-07T02:16:40.150Z,5.45
2022-11-07T02:17:42.177Z,5.45
2022-11-07T02:18:46.008Z,5.46
2022-11-07T02:19:51.426Z,5.48
2022-11-07T02:20:58.251Z,5.49
2022-11-07T02:22:14.192Z,5.51
2022-11-07T02:23:31.344Z,5.53
2022-11-07T02:24:38.200Z,5.55
2022-11-07T02:25:40.224Z,5.56
2022-11-07T02:26:43.653Z,5.57
2022-11-07T02:27:51.467Z,5.59
2022-11-07T02:28:57.399Z,5.61
2022-11-07T02:30:05.309Z,5.62
2022-11-07T02:31:07.074Z,5.64
2022-11-07T02:32:11.996Z,5.64
2022-11-07T02:33:19.776Z,5.66
2022-11-07T02:34:21.545Z,5.66
2022-11-07T02:35:37.382Z,5.67
2022-11-07T02:36:39.362Z,5.68
2022-11-07T02:37:41.123Z,5.69
2022-11-07T02:38:46.549Z,5.70
2022-11-07T02:39:48.506Z,5.70
2022-11-07T02:41:00.136Z,5.71
2022-11-07T02:42:03.799Z,5.71
2022-11-07T02:43:09.605Z,5.72
2022-11-07T02:44:13.168Z,5.75
2022-11-07T02:45:24.316Z,5.76
2022-11-07T02:46:29.032Z,5.78
2022-11-07T02:47:30.752Z,5.80
2022-11-07T02:48:41.161Z,5.82
2022-11-07T02:49:42.901Z,5.83
2022-11-07T02:50:45.992Z,5.85
2022-11-07T02:51:47.745Z,5.86
2022-11-07T02:52:49.465Z,5.88
2022-11-07T02:53:52.149Z,5.90
2022-11-07T02:54:53.906Z,5.88
2022-11-07T02:55:55.661Z,5.92
2022-11-07T02:56:57.425Z,5.94
2022-11-07T02:57:59.315Z,5.96
2022-11-07T02:59:01.481Z,5.98
2022-11-07T03:00:05.139Z,5.99
2022-11-07T03:01:12.321Z,6.01
2022-11-07T03:02:14.445Z,6.02
2022-11-07T03:03:16.816Z,6.03
2022-11-07T03:04:19.405Z,6.05
2022-11-07T03:05:21.759Z,6.08
2022-11-07T03:06:25.654Z,6.09
2022-11-07T03:07:27.640Z,6.11
2022-11-07T03:08:29.451Z,6.13
2022-11-07T03:09:31.186Z,6.15
2022-11-07T03:10:33.007Z,6.17
2022-11-07T03:11:34.746Z,6.18
2022-11-07T03:12:36.815Z,6.19
2022-11-07T03:13:39.119Z,6.21
2022-11-07T03:14:40.918Z,6.22
2022-11-07T03:15:42.831Z,6.22
2022-11-07T03:16:44.572Z,6.24
2022-11-07T03:17:46.396Z,6.24
2022-11-07T03:18:48.670Z,6.25
2022-11-07T03:19:50.417Z,6.27
2022-11-07T03:20:52.185Z,6.29
2022-11-07T03:21:54.068Z,6.31
2022-11-07T03:22:55.983Z,6.32
2022-11-07T03:23:58.690Z,6.34
2022-11-07T03:25:00.461Z,6.35
2022-11-07T03:26:05.710Z,6.36
2022-11-07T03:27:24.921Z,6.37
2022-11-07T03:28:26.724Z,6.38
2022-11-07T03:29:28.634Z,6.39
2022-11-07T03:30:30.895Z,6.41
2022-11-07T03:31:32.613Z,6.42
2022-11-07T03:32:34.946Z,6.42
2022-11-07T03:33:37.402Z,6.42
2022-11-07T03:34:39.158Z,6.43
2022-11-07T03:35:41.078Z,6.44
2022-11-07T03:36:42.846Z,6.45
2022-11-07T03:37:46.728Z,6.46
2022-11-07T03:38:48.474Z,6.47
2022-11-07T03:39:50.222Z,6.49
2022-11-07T03:40:52.046Z,6.50
2022-11-07T03:41:53.788Z,6.52
2022-11-07T03:42:55.826Z,6.54
2022-11-07T03:43:57.527Z,6.55
2022-11-07T03:44:59.234Z,6.56
2022-11-07T03:46:01.088Z,6.58
2022-11-07T03:47:02.833Z,6.58
2022-11-07T03:48:04.757Z,6.59
2022-11-07T03:49:06.557Z,6.59
2022-11-07T03:50:11.546Z,6.61
2022-11-07T03:51:13.674Z,6.60
2022-11-07T03:52:15.425Z,6.60
2022-11-07T03:53:20.836Z,6.62
2022-11-07T03:54:27.220Z,6.63
2022-11-07T03:55:28.992Z,6.64
2022-11-07T03:56:31.064Z,6.65
2022-11-07T03:57:33.023Z,6.66
2022-11-07T03:58:35.426Z,6.67
2022-11-07T03:59:37.169Z,6.68
2022-11-07T04:00:38.897Z,6.69
2022-11-07T04:01:40.786Z,6.69
2022-11-07T04:02:43.521Z,6.67
2022-11-07T04:03:45.345Z,6.70
2022-11-07T04:04:47.044Z,6.72
2022-11-07T04:05:48.774Z,6.74
2022-11-07T04:06:50.754Z,6.74
2022-11-07T04:07:52.562Z,6.75
2022-11-07T04:08:54.368Z,6.76
2022-11-07T04:09:56.158Z,6.76
2022-11-07T04:10:57.909Z,6.77
2022-11-07T04:12:18.286Z,6.77
2022-11-07T04:13:38.934Z,6.75
2022-11-07T04:14:59.323Z,6.74
2022-11-07T04:16:14.994Z,6.73
2022-11-07T04:17:19.567Z,6.71
2022-11-07T04:18:21.331Z,6.72
2022-11-07T04:19:26.450Z,6.73
2022-11-07T04:20:29.503Z,6.74
2022-11-07T04:21:31.264Z,6.75
2022-11-07T04:22:32.985Z,6.75
2022-11-07T04:23:34.808Z,6.76
2022-11-07T04:24:38.294Z,6.76
2022-11-07T04:26:01.614Z,6.74
2022-11-07T04:27:21.866Z,6.73
2022-11-07T04:28:23.672Z,6.74
2022-11-07T04:29:25.373Z,6.74
2022-11-07T04:30:28.234Z,6.75
2022-11-07T04:31:30.065Z,6.76
2022-11-07T04:32:31.811Z,6.75
2022-11-07T04:33:33.525Z,6.75
2022-11-07T04:34:35.262Z,6.76
2022-11-07T04:35:36.993Z,6.77
2022-11-07T04:36:38.727Z,6.77
2022-11-07T04:37:42.156Z,6.78
2022-11-07T04:38:43.871Z,6.79
2022-11-07T04:39:45.656Z,6.79
2022-11-07T04:40:56.199Z,6.79
2022-11-07T04:41:57.875Z,6.80
2022-11-07T04:42:59.618Z,6.81
2022-11-07T04:44:01.293Z,6.81
2022-11-07T04:45:03.675Z,6.79
2022-11-07T04:46:05.545Z,6.79
2022-11-07T04:47:07.272Z,6.78
2022-11-07T04:48:10.855Z,6.78
2022-11-07T04:49:15.226Z,6.78
2022-11-07T04:50:19.655Z,6.76
2022-11-07T04:51:22.855Z,6.75
2022-11-07T04:52:25.119Z,6.74
2022-11-07T04:53:27.020Z,6.75
2022-11-07T04:54:28.765Z,6.75
2022-11-07T04:55:30.904Z,6.76
2022-11-07T04:56:34.538Z,6.78
2022-11-07T04:57:36.506Z,6.80
2022-11-07T04:58:38.579Z,6.79
2022-11-07T04:59:40.344Z,6.80
2022-11-07T05:00:42.169Z,6.81
2022-11-07T05:01:43.923Z,6.82
2022-11-07T05:02:46.835Z,6.82
2022-11-07T05:03:48.672Z,6.80
2022-11-07T05:04:51.169Z,6.79
2022-11-07T05:05:53.025Z,6.78
2022-11-07T05:06:54.760Z,6.77
2022-11-07T05:07:56.552Z,6.77
2022-11-07T05:08:58.277Z,6.77
2022-11-07T05:10:00.104Z,6.77
2022-11-07T05:11:01.854Z,6.76
2022-11-07T05:12:03.849Z,6.75
2022-11-07T05:13:05.591Z,6.75
2022-11-07T05:14:08.511Z,6.77
2022-11-07T05:15:10.493Z,6.78
2022-11-07T05:16:19.058Z,6.79
2022-11-07T05:17:25.521Z,6.79
2022-11-07T05:18:29.500Z,6.78
2022-11-07T05:19:31.201Z,6.79
2022-11-07T05:20:38.281Z,6.79
2022-11-07T05:21:40.006Z,6.78
2022-11-07T05:23:00.329Z,6.77
2022-11-07T05:24:02.035Z,6.75
2022-11-07T05:25:03.856Z,6.75
2022-11-07T05:26:05.852Z,6.77
2022-11-07T05:27:15.216Z,6.77
2022-11-07T05:28:31.122Z,6.77
2022-11-07T05:29:37.284Z,6.76
2022-11-07T05:30:43.682Z,6.76
2022-11-07T05:31:45.666Z,6.75
2022-11-07T05:32:47.471Z,6.75
2022-11-07T05:33:49.228Z,6.75
2022-11-07T05:34:50.998Z,6.76
2022-11-07T05:35:53.127Z,6.77
2022-11-07T05:36:54.871Z,6.77
2022-11-07T05:37:56.581Z,6.77
2022-11-07T05:38:58.385Z,6.78
2022-11-07T05:40:00.134Z,6.79
2022-11-07T05:41:05.200Z,6.79
2022-11-07T05:42:07.354Z,6.79
2022-11-07T05:43:13.136Z,6.78
2022-11-07T05:44:15.168Z,6.78
2022-11-07T05:45:17.444Z,6.76
2022-11-07T05:46:19.273Z,6.75
2022-11-07T05:47:20.984Z,6.74
2022-11-07T05:48:22.711Z,6.74
2022-11-07T05:49:24.911Z,6.74
2022-11-07T05:50:28.292Z,6.74
2022-11-07T05:51:30.025Z,6.73
2022-11-07T05:52:49.354Z,6.72
2022-11-07T05:53:51.415Z,6.72
2022-11-07T05:54:53.165Z,6.72
2022-11-07T05:55:55.398Z,6.72
2022-11-07T05:56:58.132Z,6.73
2022-11-07T05:58:04.278Z,6.74
2022-11-07T05:59:09.232Z,6.75
2022-11-07T06:00:11.583Z,6.75
2022-11-07T06:01:16.064Z,6.74
2022-11-07T06:02:17.892Z,6.74
2022-11-07T06:03:22.745Z,6.74
2022-11-07T06:04:24.668Z,6.74
2022-11-07T06:05:26.789Z,6.74
2022-11-07T06:06:28.605Z,6.75
2022-11-07T06:07:34.896Z,6.75
2022-11-07T06:08:36.620Z,6.75
2022-11-07T06:09:38.368Z,6.77
2022-11-07T06:10:42.411Z,6.77
2022-11-07T06:11:44.216Z,6.76
2022-11-07T06:12:46.116Z,6.77
2022-11-07T06:13:47.810Z,6.77
2022-11-07T06:14:49.515Z,6.78
2022-11-07T06:15:51.249Z,6.78
2022-11-07T06:16:53.153Z,6.80
2022-11-07T06:17:55.518Z,6.80
2022-11-07T06:18:57.232Z,6.80
2022-11-07T06:19:59.027Z,6.77
2022-11-07T06:21:04.373Z,6.80
2022-11-07T06:22:06.170Z,6.79
2022-11-07T06:23:08.004Z,6.79
2022-11-07T06:24:15.103Z,6.79
2022-11-07T06:25:17.350Z,6.81
2022-11-07T06:26:19.087Z,6.82
2022-11-07T06:27:20.885Z,6.82
2022-11-07T06:28:22.775Z,6.81
2022-11-07T06:29:24.488Z,6.82
2022-11-07T06:30:26.740Z,6.83
2022-11-07T06:31:28.457Z,6.85
2022-11-07T06:32:30.748Z,6.86
2022-11-07T06:33:32.926Z,6.87
2022-11-07T06:34:34.858Z,6.86
2022-11-07T06:35:36.937Z,6.88
2022-11-07T06:36:38.730Z,6.88
2022-11-07T06:37:40.548Z,6.89
2022-11-07T06:38:42.318Z,6.88
2022-11-07T06:39:44.201Z,6.91
2022-11-07T06:40:46.356Z,6.91
2022-11-07T06:41:49.406Z,6.91
2022-11-07T06:42:51.424Z,6.91
2022-11-07T06:43:53.176Z,6.92
2022-11-07T06:44:54.947Z,6.94
2022-11-07T06:45:56.717Z,6.95
2022-11-07T06:46:58.552Z,6.96
2022-11-07T06:48:00.666Z,6.97
2022-11-07T06:49:02.789Z,6.96
2022-11-07T06:50:05.177Z,6.96
2022-11-07T06:51:09.884Z,6.95
2022-11-07T06:52:11.661Z,6.95
2022-11-07T06:53:14.659Z,6.95
2022-11-07T06:54:16.793Z,6.96
2022-11-07T06:55:18.521Z,6.97
2022-11-07T06:56:20.322Z,6.99
2022-11-07T06:57:22.093Z,7.00
2022-11-07T06:58:23.817Z,7.02
2022-11-07T06:59:25.543Z,7.02
2022-11-07T07:00:29.077Z,7.02
2022-11-07T07:01:31.399Z,7.02
2022-11-07T07:02:56.917Z,7.02
2022-11-07T07:03:55.428Z,7.00
2022-11-07T07:04:57.171Z,7.02
2022-11-07T07:06:03.617Z,7.04
2022-11-07T07:07:05.461Z,7.06
2022-11-07T07:08:08.020Z,7.08
2022-11-07T07:09:09.881Z,7.09
2022-11-07T07:10:11.594Z,7.10
2022-11-07T07:11:16.496Z,7.11
2022-11-07T07:12:18.285Z,7.13
2022-11-07T07:13:20.087Z,7.14
2022-11-07T07:14:22.028Z,7.15
2022-11-07T07:15:24.329Z,7.16
2022-11-07T07:16:26.089Z,7.17
2022-11-07T07:17:27.865Z,7.19
2022-11-07T07:18:30.835Z,7.20
2022-11-07T07:19:32.564Z,7.25
2022-11-07T07:20:34.565Z,7.29
2022-11-07T07:21:36.424Z,7.30
2022-11-07T07:22:38.150Z,7.32
2022-11-07T07:23:40.647Z,7.34
2022-11-07T07:24:42.447Z,7.38
2022-11-07T07:25:44.635Z,7.41
2022-11-07T07:26:46.364Z,7.43
2022-11-07T07:27:48.274Z,7.44
2022-11-07T07:28:50.034Z,7.45
2022-11-07T07:29:53.480Z,7.45
2022-11-07T07:31:07.340Z,7.44
2022-11-07T07:32:09.654Z,7.44
2022-11-07T07:33:11.399Z,7.44
2022-11-07T07:34:14.596Z,7.44
2022-11-07T07:35:16.509Z,7.45
2022-11-07T07:36:21.012Z,7.47
2022-11-07T07:37:23.031Z,7.49
2022-11-07T07:38:24.776Z,7.51
2022-11-07T07:39:27.933Z,7.52
2022-11-07T07:40:29.753Z,7.52
2022-11-07T07:41:35.026Z,7.52
2022-11-07T07:42:43.932Z,7.53
2022-11-07T07:43:45.697Z,7.52
2022-11-07T07:44:47.461Z,7.52
2022-11-07T07:45:49.181Z,7.54
2022-11-07T07:46:51.015Z,7.54
2022-11-07T07:47:53.239Z,7.54
2022-11-07T07:48:55.032Z,7.52
2022-11-07T07:49:56.756Z,7.52
2022-11-07T07:50:59.612Z,7.53
2022-11-07T07:52:01.468Z,7.53
2022-11-07T07:53:08.695Z,7.53
2022-11-07T07:54:12.007Z,7.55
2022-11-07T07:55:14.177Z,7.56
2022-11-07T07:56:17.627Z,7.58
2022-11-07T07:57:19.369Z,7.59
2022-11-07T07:58:21.085Z,7.60
2022-11-07T07:59:22.823Z,7.61
2022-11-07T08:00:24.562Z,7.62
2022-11-07T08:01:26.380Z,7.64
2022-11-07T08:02:28.239Z,7.66
2022-11-07T08:03:50.778Z,7.69
2022-11-07T08:04:52.187Z,7.71
2022-11-07T08:05:55.992Z,7.73
2022-11-07T08:06:57.688Z,7.74
2022-11-07T08:07:59.592Z,7.75
2022-11-07T08:09:01.419Z,7.76
2022-11-07T08:10:27.011Z,7.77
2022-11-07T08:11:25.496Z,7.77
2022-11-07T08:12:27.229Z,7.77
2022-11-07T08:13:29.883Z,7.79
2022-11-07T08:14:32.962Z,7.80
2022-11-07T08:15:34.727Z,7.81
2022-11-07T08:16:36.465Z,7.82
2022-11-07T08:17:38.639Z,7.83
2022-11-07T08:18:40.964Z,7.85
2022-11-07T08:19:42.717Z,7.89
2022-11-07T08:20:44.427Z,7.91
2022-11-07T08:21:46.354Z,7.93
2022-11-07T08:22:48.072Z,7.96
2022-11-07T08:23:53.436Z,7.98
2022-11-07T08:24:55.170Z,7.97
2022-11-07T08:25:59.022Z,7.98
2022-11-07T08:27:00.763Z,7.98
2022-11-07T08:28:02.493Z,7.98
2022-11-07T08:29:05.683Z,7.99
2022-11-07T08:30:11.545Z,7.99
2022-11-07T08:31:15.655Z,7.98
2022-11-07T08:32:17.413Z,7.98
2022-11-07T08:33:19.547Z,7.98
2022-11-07T08:34:21.707Z,7.97
2022-11-07T08:35:23.785Z,7.98
2022-11-07T08:36:26.653Z,7.98
2022-11-07T08:37:28.386Z,7.99
2022-11-07T08:38:32.226Z,7.99
2022-11-07T08:39:34.012Z,7.98
2022-11-07T08:40:35.994Z,7.99
2022-11-07T08:41:37.758Z,8.01
2022-11-07T08:42:39.484Z,8.02
2022-11-07T08:43:41.217Z,8.05
2022-11-07T08:44:43.029Z,8.07
2022-11-07T08:45:46.341Z,8.09
2022-11-07T08:46:48.089Z,8.10
2022-11-07T08:47:49.792Z,8.10
2022-11-07T08:48:51.529Z,8.10
2022-11-07T08:49:53.323Z,8.13
2022-11-07T08:50:57.071Z,8.14
2022-11-07T08:52:00.564Z,8.15
2022-11-07T08:53:03.326Z,8.15
2022-11-07T08:54:05.355Z,8.16
2022-11-07T08:55:08.021Z,8.17
2022-11-07T08:56:10.828Z,8.19
2022-11-07T08:57:12.599Z,8.21
2022-11-07T08:58:15.253Z,8.21
2022-11-07T08:59:17.582Z,8.21
2022-11-07T09:00:19.727Z,8.22
2022-11-07T09:01:21.758Z,8.23
2022-11-07T09:03:49.252Z,8.26
2022-11-07T09:04:54.948Z,8.26
2022-11-07T09:05:57.600Z,8.27
2022-11-07T09:06:59.331Z,8.29
2022-11-07T09:08:01.103Z,8.30
2022-11-07T09:09:03.111Z,8.31
2022-11-07T09:10:05.395Z,8.31
2022-11-07T09:11:07.633Z,8.31
2022-11-07T09:12:09.359Z,8.31
2022-11-07T09:13:11.119Z,8.30
2022-11-07T09:14:12.815Z,8.30
2022-11-07T09:15:15.968Z,8.30
2022-11-07T09:16:17.861Z,8.31
2022-11-07T09:17:19.630Z,8.31
2022-11-07T09:18:21.591Z,8.30
2022-11-07T09:19:23.331Z,8.31
2022-11-07T09:20:25.109Z,8.31
2022-11-07T09:21:26.866Z,8.32
2022-11-07T09:22:28.949Z,8.33
2022-11-07T09:23:31.193Z,8.34
2022-11-07T09:24:32.950Z,8.34
2022-11-07T09:25:34.680Z,8.36
2022-11-07T09:26:36.416Z,8.37
2022-11-07T09:27:38.283Z,8.39
2022-11-07T09:28:40.820Z,8.40
2022-11-07T09:29:42.566Z,8.41
2022-11-07T09:30:44.361Z,8.43
2022-11-07T09:31:46.068Z,8.43
2022-11-07T09:32:47.874Z,8.43
2022-11-07T09:33:49.585Z,8.44
2022-11-07T09:34:58.125Z,8.45
2022-11-07T09:36:03.963Z,8.46
2022-11-07T09:37:06.104Z,8.47
2022-11-07T09:38:07.988Z,8.48
2022-11-07T09:39:09.811Z,8.47
2022-11-07T09:40:40.495Z,8.47
2022-11-07T09:41:54.848Z,8.46
2022-11-07T09:43:07.257Z,8.46
2022-11-07T09:44:17.366Z,8.47
2022-11-07T09:45:19.070Z,8.49
2022-11-07T09:46:40.238Z,8.52
2022-11-07T09:47:48.512Z,8.55
2022-11-07T09:49:08.951Z,8.57
2022-11-07T09:50:23.534Z,8.59
2022-11-07T09:51:42.629Z,8.61
2022-11-07T09:52:58.897Z,8.64
2022-11-07T09:54:07.743Z,8.69
2022-11-07T09:55:17.370Z,8.73
2022-11-07T09:56:21.851Z,8.75
2022-11-07T09:57:24.169Z,8.76
2022-11-07T09:58:38.019Z,8.77
2022-11-07T09:59:55.877Z,8.78
2022-11-07T10:01:02.967Z,8.78
2022-11-07T10:02:15.676Z,8.78
2022-11-07T10:03:18.208Z,8.79
2022-11-07T10:04:25.170Z,8.79
2022-11-07T10:05:40.441Z,8.81
2022-11-07T10:07:05.400Z,8.84
2022-11-07T10:08:31.726Z,8.88
2022-11-07T10:10:01.083Z,8.93
2022-11-07T10:11:23.677Z,8.95
2022-11-07T10:13:04.842Z,8.99
2022-11-07T10:14:16.946Z,9.00
2022-11-07T10:15:30.297Z,9.00
2022-11-07T10:17:01.940Z,9.01
2022-11-07T10:18:28.693Z,9.03
2022-11-07T10:19:40.421Z,9.06
2022-11-07T10:21:31.060Z,9.07
2022-11-07T10:22:23.389Z,9.08
2022-11-07T10:23:46.746Z,9.10
2022-11-07T10:25:18.058Z,9.14
2022-11-07T10:26:25.431Z,9.18
2022-11-07T10:27:27.874Z,9.19
2022-11-07T10:28:31.940Z,9.19
2022-11-07T10:29:45.021Z,9.21
2022-11-07T10:30:53.991Z,9.21
2022-11-07T10:32:18.111Z,9.22
2022-11-07T10:33:43.366Z,9.25
2022-11-07T10:35:02.591Z,9.32
2022-11-07T10:36:22.476Z,9.39
2022-11-07T10:37:24.417Z,9.55
2022-11-07T10:38:32.264Z,9.67
2022-11-07T10:39:34.003Z,9.81
2022-11-07T10:40:39.985Z,9.90
2022-11-07T10:41:59.000Z,9.98
2022-11-07T10:43:05.677Z,10.07
2022-11-07T10:44:22.773Z,10.14
2022-11-07T10:45:27.696Z,10.25
2022-11-07T10:46:38.161Z,10.37
2022-11-07T10:47:41.903Z,10.48
2022-11-07T10:49:00.094Z,10.56
2022-11-07T10:50:16.534Z,10.70
2022-11-07T10:51:18.634Z,10.85
2022-11-07T10:52:20.483Z,10.95
2022-11-07T10:53:25.126Z,11.01
2022-11-07T10:54:28.531Z,11.07
2022-11-07T10:55:44.276Z,11.14
2022-11-07T10:56:50.005Z,11.13
2022-11-07T10:58:04.505Z,11.14
2022-11-07T10:59:13.341Z,11.14
2022-11-07T11:00:24.887Z,11.19
2022-11-07T11:01:27.613Z,11.30
2022-11-07T11:02:41.971Z,11.46
2022-11-07T11:03:48.601Z,11.67
2022-11-07T11:04:57.512Z,11.76
2022-11-07T11:06:18.036Z,11.82
2022-11-07T11:07:25.634Z,11.86
2022-11-07T11:08:37.848Z,11.78
2022-11-07T11:09:51.121Z,11.71
2022-11-07T11:10:52.951Z,11.61
2022-11-07T11:11:55.379Z,11.61
2022-11-07T11:12:57.776Z,11.52
2022-11-07T11:14:11.004Z,11.51
2022-11-07T11:15:15.067Z,11.44
2022-11-07T11:16:26.604Z,11.38
2022-11-07T11:17:28.616Z,11.23
2022-11-07T11:18:30.431Z,11.08
2022-11-07T11:19:52.473Z,11.00
2022-11-07T11:21:01.751Z,10.92
2022-11-07T11:22:16.714Z,10.85
2022-11-07T11:23:23.658Z,10.82
2022-11-07T11:24:32.036Z,10.78
2022-11-07T11:25:44.403Z,10.69
2022-11-07T11:26:50.966Z,10.58
2022-11-07T11:28:06.902Z,10.50
2022-11-07T11:29:24.335Z,10.47
2022-11-07T11:30:26.447Z,10.60
2022-11-07T11:31:35.061Z,10.67
2022-11-07T11:32:48.547Z,10.63
2022-11-07T11:34:10.843Z,10.56
2022-11-07T11:35:18.431Z,10.45
2022-11-07T11:36:27.781Z,10.38
2022-11-07T11:37:37.189Z,10.32
2022-11-07T11:38:39.096Z,10.26
2022-11-07T11:39:46.629Z,10.21
2022-11-07T11:41:03.282Z,10.14
2022-11-07T11:42:27.179Z,10.07
2022-11-07T11:43:51.478Z,10.00
2022-11-07T11:44:59.011Z,9.96
2022-11-07T11:46:31.381Z,9.93
2022-11-07T11:47:41.379Z,9.88
2022-11-07T11:49:12.195Z,9.84
2022-11-07T11:50:21.967Z,9.82
2022-11-07T11:51:46.509Z,9.81
2022-11-07T11:52:48.664Z,9.78
2022-11-07T11:53:50.603Z,9.77
2022-11-07T11:54:56.208Z,9.75
2022-11-07T11:56:26.956Z,9.73
2022-11-07T11:57:50.152Z,9.70
2022-11-07T11:59:16.310Z,9.67
2022-11-07T12:00:21.179Z,9.65
2022-11-07T12:01:32.517Z,9.62
2022-11-07T12:03:08.220Z,9.61
2022-11-07T12:04:46.403Z,9.61
2022-11-07T12:06:09.170Z,9.64
2022-11-07T12:07:39.054Z,9.62
2022-11-07T12:08:59.332Z,9.60
2022-11-07T12:10:20.206Z,9.58
2022-11-07T12:11:38.000Z,9.55
2022-11-07T12:13:10.665Z,9.52
2022-11-07T12:14:39.928Z,9.48
2022-11-07T12:15:57.105Z,9.46
2022-11-07T12:17:15.616Z,9.45
2022-11-07T12:18:44.450Z,9.44
2022-11-07T12:20:03.390Z,9.41
2022-11-07T12:21:33.339Z,9.38
2022-11-07T12:23:03.051Z,9.35
2022-11-07T12:24:32.291Z,9.31
2022-11-07T12:26:12.662Z,9.30
2022-11-07T12:27:31.499Z,9.27
2022-11-07T12:28:44.467Z,9.25
2022-11-07T12:30:07.838Z,9.23
2022-11-07T12:31:30.851Z,9.19
2022-11-07T12:33:05.421Z,9.15
2022-11-07T12:34:56.893Z,9.12
2022-11-07T12:36:06.784Z,9.10
2022-11-07T12:37:24.882Z,9.07
2022-11-07T12:38:29.295Z,9.04
2022-11-07T12:39:55.817Z,9.01
2022-11-07T12:41:20.290Z,8.98
2022-11-07T12:42:46.701Z,8.95
2022-11-07T12:44:02.188Z,8.94
2022-11-07T12:45:26.752Z,8.92
2022-11-07T12:46:45.360Z,8.91
2022-11-07T12:47:56.947Z,8.92
2022-11-07T12:49:37.992Z,8.92
2022-11-07T12:50:57.373Z,8.94
2022-11-07T12:52:31.085Z,8.93
2022-11-07T12:54:04.466Z,8.93
2022-11-07T12:55:47.819Z,8.95
2022-11-07T12:56:53.393Z,8.99
2022-11-07T12:57:56.470Z,9.01
2022-11-07T12:59:00.703Z,9.04
2022-11-07T13:00:05.903Z,9.05
2022-11-07T13:01:08.933Z,9.07
2022-11-07T13:02:35.221Z,9.08
2022-11-07T13:03:56.367Z,9.11
2022-11-07T13:05:03.376Z,9.11
2022-11-07T13:06:31.551Z,9.11
2022-11-07T13:07:50.108Z,9.12
2022-11-07T13:09:29.521Z,9.12
2022-11-07T13:10:48.659Z,9.08
2022-11-07T13:12:06.290Z,9.05
2022-11-07T13:13:25.479Z,9.03
2022-11-07T13:14:39.189Z,9.02
2022-11-07T13:16:08.983Z,9.02
2022-11-07T13:17:15.621Z,9.00
2022-11-07T13:18:26.634Z,8.97
2022-11-07T13:19:37.373Z,8.97
2022-11-07T13:20:39.102Z,8.96
2022-11-07T13:21:43.083Z,8.98
2022-11-07T13:22:44.795Z,8.98
2022-11-07T13:23:48.122Z,8.99
2022-11-07T13:25:09.345Z,9.00
2022-11-07T13:26:32.945Z,9.01
2022-11-07T13:27:39.513Z,9.00
2022-11-07T13:28:58.351Z,8.98
2022-11-07T13:30:20.437Z,8.97
2022-11-07T13:31:38.612Z,8.96
2022-11-07T13:32:41.071Z,8.93
2022-11-07T13:33:42.766Z,8.91
2022-11-07T13:35:00.522Z,8.88
2022-11-07T13:36:26.295Z,8.85
2022-11-07T13:37:33.054Z,8.85
2022-11-07T13:38:50.193Z,8.85
2022-11-07T13:39:59.606Z,8.85
2022-11-07T13:41:06.171Z,8.84
2022-11-07T13:42:16.830Z,8.83
2022-11-07T13:43:24.293Z,8.83
2022-11-07T13:44:36.167Z,8.81
2022-11-07T13:45:46.099Z,8.80
2022-11-07T13:46:53.503Z,8.80
2022-11-07T13:48:01.038Z,8.79
2022-11-07T13:49:17.220Z,8.79
2022-11-07T13:50:25.495Z,8.79
2022-11-07T13:51:41.077Z,8.78
2022-11-07T13:53:05.623Z,8.78
2022-11-07T13:54:27.698Z,8.79
2022-11-07T13:55:44.146Z,8.76
2022-11-07T13:57:04.833Z,8.77
2022-11-07T13:58:13.012Z,8.78
2022-11-07T13:59:44.433Z,8.80
2022-11-07T14:00:46.601Z,8.82
2022-11-07T14:01:56.228Z,8.83
2022-11-07T14:02:59.345Z,8.87
2022-11-07T14:04:21.262Z,8.88
2022-11-07T14:05:35.091Z,8.86
2022-11-07T14:06:37.048Z,8.84
2022-11-07T14:07:45.623Z,8.82
2022-11-07T14:08:48.625Z,8.81
2022-11-07T14:09:57.764Z,8.80
2022-11-07T14:11:00.143Z,8.80
2022-11-07T14:12:01.998Z,8.79
2022-11-07T14:13:22.396Z,8.78
2022-11-07T14:14:26.607Z,8.75
2022-11-07T14:15:30.627Z,8.73
2022-11-07T14:16:32.623Z,8.72
2022-11-07T14:17:36.811Z,8.70
2022-11-07T14:18:48.172Z,8.69
2022-11-07T14:19:49.963Z,8.69
2022-11-07T14:20:57.729Z,8.69
2022-11-07T14:22:00.200Z,8.69
2022-11-07T14:23:01.962Z,8.68
2022-11-07T14:24:20.013Z,8.68
2022-11-07T14:25:33.331Z,8.66
2022-11-07T14:26:37.852Z,8.64
2022-11-07T14:27:46.640Z,8.63
2022-11-07T14:28:49.296Z,8.61
2022-11-07T14:30:00.418Z,8.59
2022-11-07T14:31:05.097Z,8.56
2022-11-07T14:32:07.395Z,8.53
2022-11-07T14:33:21.554Z,8.50
2022-11-07T14:34:23.418Z,8.48
2022-11-07T14:35:33.350Z,8.46
2022-11-07T14:36:35.500Z,8.45
2022-11-07T14:37:37.250Z,8.44
2022-11-07T14:38:46.301Z,8.43
2022-11-07T14:39:49.746Z,8.44
2022-11-07T14:40:55.536Z,8.44
2022-11-07T14:42:01.400Z,8.44
2022-11-07T14:43:04.394Z,8.43
2022-11-07T14:44:13.174Z,8.44
2022-11-07T14:45:34.311Z,8.45
2022-11-07T14:46:42.250Z,8.46
2022-11-07T14:47:46.018Z,8.45